createdAt,value
2019-04-22T00:00:40.757Z,12.10
2019-04-22T00:03:15.220Z,12.63
2019-04-22T00:06:07.224Z,8.40
2019-04-22T00:08:43.257Z,7.93
2019-04-22T00:11:26.056Z,9.73
2019-04-22T00:13:55.171Z,8.93
2019-04-22T00:16:33.794Z,7.67
2019-04-22T00:21:35.298Z,9.53
2019-04-22T00:24:04.597Z,7.90
2019-04-22T00:26:44.030Z,6.77
2019-04-22T00:29:24.152Z,7.97
2019-04-22T00:31:58.933Z,6.87
2019-04-22T00:34:34.159Z,7.80
2019-04-22T00:37:11.614Z,5.83
2019-04-22T00:39:46.511Z,11.73
2019-04-22T00:42:15.340Z,13.20
2019-04-22T00:44:57.865Z,11.27
2019-04-22T00:47:29.329Z,5.07
2019-04-22T00:55:10.116Z,9.83
2019-04-22T00:57:32.385Z,12.93
2019-04-22T01:00:11.611Z,9.93
2019-04-22T01:02:48.042Z,10.57
2019-04-22T01:05:21.745Z,12.70
2019-04-22T01:07:53.235Z,7.20
2019-04-22T01:10:28.879Z,8.53
2019-04-22T01:12:59.800Z,10.07
2019-04-22T01:15:33.691Z,9.57
2019-04-22T01:18:08.239Z,9.20
2019-04-22T01:21:00.667Z,10.00
2019-04-22T01:23:03.862Z,12.23
2019-04-22T01:25:42.111Z,11.00
2019-04-22T01:28:06.300Z,10.77
2019-04-22T01:30:38.383Z,8.97
2019-04-22T01:33:09.439Z,11.13
2019-04-22T01:35:56.904Z,9.93
2019-04-22T01:38:26.273Z,10.07
2019-04-22T01:41:07.228Z,8.97
2019-04-22T01:43:59.027Z,10.57
2019-04-22T01:46:16.937Z,11.43
2019-04-22T01:48:48.665Z,11.33
2019-04-22T01:51:12.276Z,9.90
2019-04-22T01:53:57.685Z,8.73
2019-04-22T01:56:27.221Z,10.57
2019-04-22T01:58:50.322Z,7.63
2019-04-22T02:01:37.406Z,10.80
2019-04-22T02:04:15.227Z,8.10
2019-04-22T02:06:44.202Z,7.20
2019-04-22T02:09:17.434Z,8.37
2019-04-22T02:11:57.091Z,8.20
2019-04-22T02:14:24.686Z,6.40
2019-04-22T02:16:56.212Z,7.70
2019-04-22T02:19:30.705Z,9.47
2019-04-22T02:21:54.917Z,9.33
2019-04-22T02:27:10.504Z,8.70
2019-04-22T02:29:44.570Z,6.07
2019-04-22T02:35:01.201Z,10.33
2019-04-22T02:39:55.042Z,9.20
2019-04-22T02:45:19.116Z,7.03
2019-04-22T02:47:49.912Z,9.07
2019-04-22T02:50:05.138Z,9.30
2019-04-22T02:52:47.307Z,9.27
2019-04-22T02:55:15.528Z,10.93
2019-04-22T03:00:40.201Z,9.63
2019-04-22T03:05:40.140Z,9.47
2019-04-22T03:08:06.666Z,8.77
2019-04-22T03:10:58.082Z,9.80
2019-04-22T03:13:08.941Z,10.17
2019-04-22T03:15:55.447Z,12.27
2019-04-22T03:18:19.821Z,10.53
2019-04-22T03:20:50.024Z,11.73
2019-04-22T03:23:51.020Z,9.77
2019-04-22T03:28:43.230Z,10.83
2019-04-22T03:39:46.171Z,11.67
2019-04-22T03:44:46.721Z,13.00
2019-04-22T03:47:17.618Z,9.53
2019-04-22T03:49:55.885Z,15.07
2019-04-22T03:57:44.811Z,11.20
2019-04-22T04:00:03.865Z,9.20
2019-04-22T04:05:00.832Z,11.07
2019-04-22T04:10:20.057Z,12.63
2019-04-22T04:12:49.390Z,11.83
2019-04-22T04:15:18.987Z,10.10
2019-04-22T04:17:51.861Z,10.70
2019-04-22T04:23:17.068Z,12.20
2019-04-22T04:25:42.208Z,10.43
2019-04-22T04:30:33.437Z,16.23
2019-04-22T04:33:16.035Z,14.97
2019-04-22T04:35:48.187Z,17.20
2019-04-22T04:38:13.126Z,14.87
2019-04-22T04:43:26.110Z,13.13
2019-04-22T04:46:09.975Z,15.23
2019-04-22T04:48:41.996Z,14.97
2019-04-22T04:51:18.135Z,10.00
2019-04-22T04:53:33.708Z,11.60
2019-04-22T04:56:30.454Z,13.07
2019-04-22T05:03:57.827Z,12.60
2019-04-22T05:06:39.648Z,11.97
2019-04-22T05:11:40.601Z,11.57
2019-04-22T05:14:06.064Z,10.60
2019-04-22T05:16:42.518Z,8.37
2019-04-22T05:19:07.517Z,14.23
2019-04-22T05:21:29.670Z,25.43
2019-04-22T05:24:19.832Z,23.97
2019-04-22T05:29:22.164Z,16.47
2019-04-22T05:31:52.396Z,13.40
2019-04-22T05:34:22.793Z,17.50
2019-04-22T05:36:53.960Z,19.27
2019-04-22T05:39:26.213Z,14.77
2019-04-22T05:42:03.667Z,17.33
2019-04-22T05:44:39.441Z,9.97
2019-04-22T05:47:08.092Z,10.60
2019-04-22T05:49:35.020Z,12.57
2019-04-22T05:52:17.195Z,9.23
2019-04-22T05:54:48.207Z,9.60
2019-04-22T05:57:19.800Z,8.90
2019-04-22T05:59:56.914Z,8.40
2019-04-22T06:02:32.519Z,11.37
2019-04-22T06:07:32.373Z,27.40
2019-04-22T06:10:14.343Z,13.93
2019-04-22T06:12:36.463Z,12.33
2019-04-22T06:15:12.084Z,9.30
2019-04-22T06:17:57.614Z,10.17
2019-04-22T06:20:27.774Z,8.73
2019-04-22T06:22:57.122Z,10.00
2019-04-22T06:25:38.619Z,8.67
2019-04-22T06:28:09.953Z,9.70
2019-04-22T06:30:34.598Z,8.73
2019-04-22T06:33:13.231Z,10.10
2019-04-22T06:35:43.887Z,8.17
2019-04-22T06:38:30.512Z,9.17
2019-04-22T06:40:55.304Z,8.77
2019-04-22T06:43:22.224Z,8.53
2019-04-22T06:45:51.678Z,9.73
2019-04-22T06:51:03.184Z,11.77
2019-04-22T06:53:37.340Z,10.73
2019-04-22T06:56:04.883Z,9.67
2019-04-22T06:58:42.525Z,9.07
2019-04-22T07:01:24.561Z,8.47
2019-04-22T07:03:53.686Z,9.30
2019-04-22T07:06:27.197Z,13.27
2019-04-22T07:11:29.584Z,11.73
2019-04-22T07:16:39.446Z,10.23
2019-04-22T07:19:07.714Z,9.00
2019-04-22T07:21:46.997Z,8.43
2019-04-22T07:24:34.508Z,11.13
2019-04-22T07:26:53.013Z,8.90
2019-04-22T07:29:44.737Z,11.20
2019-04-22T07:39:39.579Z,9.67
2019-04-22T07:42:17.130Z,11.17
2019-04-22T07:44:54.781Z,9.57
2019-04-22T07:49:52.933Z,8.83
2019-04-22T07:52:22.912Z,6.23
2019-04-22T07:54:59.617Z,6.73
2019-04-22T07:57:47.945Z,4.77
2019-04-22T08:00:10.946Z,5.43
2019-04-22T08:02:37.494Z,8.70
2019-04-22T08:07:45.401Z,3.77
2019-04-22T08:10:35.382Z,4.63
2019-04-22T08:12:59.326Z,5.07
2019-04-22T08:15:32.983Z,5.30
2019-04-22T08:18:02.996Z,4.60
2019-04-22T08:20:40.929Z,7.07
2019-04-22T08:25:45.760Z,5.43
2019-04-22T08:28:26.211Z,4.80
2019-04-22T08:30:53.690Z,4.30
2019-04-22T08:33:29.100Z,3.90
2019-04-22T08:38:36.757Z,5.53
2019-04-22T08:41:32.122Z,5.50
2019-04-22T08:46:35.214Z,5.97
2019-04-22T08:51:29.569Z,3.40
2019-04-22T08:56:38.856Z,6.03
2019-04-22T09:01:40.800Z,5.50
2019-04-22T09:04:11.983Z,7.20
2019-04-22T09:08:01.481Z,8.90
2019-04-22T09:09:38.097Z,3.93
2019-04-22T09:14:32.486Z,4.90
2019-04-22T09:17:04.084Z,5.40
2019-04-22T09:19:38.816Z,5.73
2019-04-22T09:22:14.719Z,5.40
2019-04-22T09:24:43.427Z,6.67
2019-04-22T09:32:38.508Z,5.70
2019-04-22T09:34:51.735Z,6.40
2019-04-22T09:40:04.825Z,5.67
2019-04-22T09:42:39.610Z,8.57
2019-04-22T09:45:11.321Z,6.90
2019-04-22T09:50:22.614Z,7.00
2019-04-22T09:52:51.547Z,6.00
2019-04-22T09:55:18.335Z,5.33
2019-04-22T09:57:50.886Z,6.17
2019-04-22T10:00:36.425Z,7.00
2019-04-22T10:03:00.515Z,5.93
2019-04-22T10:05:32.533Z,6.07
2019-04-22T10:08:14.848Z,7.80
2019-04-22T10:10:44.435Z,8.23
2019-04-22T10:13:21.494Z,6.93
2019-04-22T10:15:48.112Z,6.13
2019-04-22T10:18:16.264Z,6.47
2019-04-22T10:20:54.133Z,6.23
2019-04-22T10:23:31.597Z,5.13
2019-04-22T10:26:04.596Z,4.57
2019-04-22T10:28:40.205Z,7.20
2019-04-22T10:31:11.492Z,7.83
2019-04-22T10:33:38.273Z,5.70
2019-04-22T10:35:49.655Z,6.23
2019-04-22T10:38:22.061Z,5.43
2019-04-22T10:40:54.539Z,6.00
2019-04-22T10:43:27.358Z,4.33
2019-04-22T10:45:59.910Z,6.73
2019-04-22T10:48:32.382Z,6.90
2019-04-22T10:51:04.589Z,7.53
2019-04-22T10:53:37.476Z,4.40
2019-04-22T10:56:09.376Z,4.33
2019-04-22T10:58:42.615Z,4.30
2019-04-22T11:01:15.764Z,5.40
2019-04-22T11:03:48.951Z,4.20
2019-04-22T11:06:21.288Z,4.50
2019-04-22T11:08:58.360Z,4.40
2019-04-22T11:11:34.805Z,7.03
2019-04-22T11:14:00.128Z,4.50
2019-04-22T11:16:31.834Z,7.37
2019-04-22T11:19:03.587Z,5.80
2019-04-22T11:21:35.967Z,6.13
2019-04-22T11:24:08.654Z,5.37
2019-04-22T11:26:41.081Z,7.57
2019-04-22T11:29:13.985Z,6.77
2019-04-22T11:31:46.439Z,4.93
2019-04-22T11:34:19.274Z,5.30
2019-04-22T11:36:52.701Z,5.57
2019-04-22T11:39:25.888Z,6.23
2019-04-22T11:41:58.372Z,7.80
2019-04-22T11:44:37.191Z,4.07
2019-04-22T11:47:09.678Z,4.83
2019-04-22T11:49:41.766Z,5.90
2019-04-22T11:52:16.431Z,6.07
2019-04-22T11:54:46.807Z,5.73
2019-04-22T11:57:19.221Z,5.30
2019-04-22T11:59:51.119Z,5.10
2019-04-22T12:02:27.179Z,4.77
2019-04-22T12:04:59.038Z,4.40
2019-04-22T12:07:34.468Z,6.10
2019-04-22T12:10:17.729Z,5.23
2019-04-22T12:12:37.822Z,3.80
2019-04-22T12:15:10.699Z,6.97
2019-04-22T12:17:42.687Z,5.53
2019-04-22T12:20:16.482Z,5.67
2019-04-22T12:22:49.342Z,4.70
2019-04-22T12:25:36.149Z,6.70
2019-04-22T12:27:56.980Z,5.27
2019-04-22T12:30:29.832Z,5.07
2019-04-22T12:33:02.556Z,5.00
2019-04-22T12:35:34.609Z,4.00
2019-04-22T12:38:08.825Z,4.40
2019-04-22T12:40:47.380Z,7.33
2019-04-22T12:43:14.883Z,5.00
2019-04-22T12:45:47.999Z,6.47
2019-04-22T12:48:21.180Z,4.77
2019-04-22T12:50:56.264Z,4.33
2019-04-22T12:53:27.959Z,4.90
2019-04-22T12:55:59.903Z,5.40
2019-04-22T12:58:33.874Z,4.43
2019-04-22T13:01:06.794Z,4.73
2019-04-22T13:03:38.416Z,4.83
2019-04-22T13:06:10.040Z,4.63
2019-04-22T13:08:41.800Z,3.87
2019-04-22T13:11:17.925Z,4.83
2019-04-22T13:13:47.056Z,4.30
2019-04-22T13:16:18.756Z,4.27
2019-04-22T13:18:58.292Z,4.67
2019-04-22T13:21:24.558Z,4.13
2019-04-22T13:23:57.144Z,4.30
2019-04-22T13:26:29.770Z,8.53
2019-04-22T13:29:03.102Z,4.17
2019-04-22T13:31:34.993Z,4.63
2019-04-22T13:34:13.356Z,4.07
2019-04-22T13:36:41.796Z,3.43
2019-04-22T13:39:13.313Z,4.50
2019-04-22T13:41:50.648Z,5.87
2019-04-22T13:44:18.949Z,4.33
2019-04-22T13:47:11.586Z,3.90
2019-04-22T13:50:03.119Z,8.53
2019-04-22T13:52:40.007Z,6.53
2019-04-22T13:55:01.717Z,5.27
2019-04-22T13:57:27.543Z,5.90
2019-04-22T13:59:48.615Z,5.63
2019-04-22T14:02:48.575Z,5.07
2019-04-22T14:05:22.441Z,4.50
2019-04-22T14:07:56.824Z,5.57
2019-04-22T14:10:27.143Z,3.70
2019-04-22T14:13:00.214Z,5.27
2019-04-22T14:15:32.189Z,4.10
2019-04-22T14:18:04.883Z,5.00
2019-04-22T14:20:36.863Z,5.33
2019-04-22T14:23:10.229Z,7.47
2019-04-22T14:25:42.806Z,6.13
2019-04-22T14:28:17.636Z,3.83
2019-04-22T14:30:48.575Z,4.67
2019-04-22T14:33:22.399Z,7.63
2019-04-22T14:35:53.918Z,11.00
2019-04-22T14:38:25.922Z,4.30
2019-04-22T14:40:58.591Z,7.47
2019-04-22T14:44:02.343Z,5.07
2019-04-22T14:46:26.470Z,4.83
2019-04-22T14:48:57.057Z,4.73
2019-04-22T14:51:27.818Z,4.00
2019-04-22T14:54:07.203Z,6.30
2019-04-22T14:56:18.295Z,4.63
2019-04-22T14:58:50.896Z,7.63
2019-04-22T15:01:22.730Z,3.97
2019-04-22T15:03:54.513Z,3.33
2019-04-22T15:06:26.324Z,3.97
2019-04-22T15:08:59.477Z,4.37
2019-04-22T15:11:43.742Z,5.70
2019-04-22T15:14:05.412Z,4.10
2019-04-22T15:16:53.020Z,6.73
2019-04-22T15:19:45.567Z,4.63
2019-04-22T15:22:17.026Z,5.00
2019-04-22T15:24:48.604Z,5.20
2019-04-22T15:27:22.460Z,8.67
2019-04-22T15:29:54.072Z,4.90
2019-04-22T15:32:25.606Z,6.63
2019-04-22T15:34:57.443Z,7.03
2019-04-22T15:37:29.066Z,5.43
2019-04-22T15:40:00.689Z,4.77
2019-04-22T15:42:37.727Z,5.10
2019-04-22T15:45:08.664Z,5.13
2019-04-22T15:47:40.002Z,6.03
2019-04-22T15:50:12.258Z,5.20
2019-04-22T15:52:49.643Z,5.80
2019-04-22T15:55:18.583Z,6.10
2019-04-22T15:57:51.819Z,4.83
2019-04-22T16:00:35.316Z,6.53
2019-04-22T16:02:57.606Z,4.17
2019-04-22T16:05:30.321Z,6.93
2019-04-22T16:08:03.373Z,8.73
2019-04-22T16:10:35.654Z,7.93
2019-04-22T16:13:16.144Z,5.57
2019-04-22T16:15:42.725Z,6.53
2019-04-22T16:18:15.133Z,5.97
2019-04-22T16:20:48.260Z,5.27
2019-04-22T16:23:38.268Z,5.17
2019-04-22T16:26:20.233Z,6.63
2019-04-22T16:28:55.422Z,6.93
2019-04-22T16:31:25.240Z,9.33
2019-04-22T16:33:58.397Z,4.43
2019-04-22T16:36:31.054Z,4.53
2019-04-22T16:39:04.682Z,6.57
2019-04-22T16:41:37.131Z,10.30
2019-04-22T16:44:09.577Z,5.10
2019-04-22T16:46:41.699Z,4.97
2019-04-22T16:49:13.997Z,5.43
2019-04-22T16:51:45.875Z,4.97
2019-04-22T16:54:17.957Z,5.30
2019-04-22T16:56:50.078Z,5.13
2019-04-22T16:59:22.574Z,6.87
2019-04-22T17:02:12.890Z,7.53
2019-04-22T17:05:09.614Z,4.47
2019-04-22T17:07:42.477Z,6.50
2019-04-22T17:10:15.559Z,4.83
2019-04-22T17:12:56.365Z,4.87
2019-04-22T17:15:22.147Z,9.30
2019-04-22T17:17:54.838Z,9.70
2019-04-22T17:20:27.111Z,7.13
2019-04-22T17:23:00.016Z,6.73
2019-04-22T17:25:32.117Z,6.53
2019-04-22T17:28:03.790Z,8.07
2019-04-22T17:30:36.016Z,11.97
2019-04-22T17:33:08.411Z,7.57
2019-04-22T17:35:41.095Z,6.77
2019-04-22T17:38:26.252Z,6.83
2019-04-22T17:41:02.592Z,7.10
2019-04-22T17:43:52.283Z,10.83
2019-04-22T17:46:25.203Z,12.23
2019-04-22T17:49:13.927Z,8.47
2019-04-22T17:51:50.301Z,9.83
2019-04-22T17:54:15.189Z,8.47
2019-04-22T17:56:50.986Z,12.00
2019-04-22T17:59:20.361Z,8.00
2019-04-22T18:01:53.981Z,8.43
2019-04-22T18:04:08.625Z,11.10
2019-04-22T18:07:02.155Z,7.70
2019-04-22T18:09:53.719Z,7.87
2019-04-22T18:12:12.171Z,5.23
2019-04-22T18:14:59.649Z,7.03
2019-04-22T18:17:17.284Z,5.97
2019-04-22T18:19:49.174Z,5.17
2019-04-22T18:22:14.023Z,6.23
2019-04-22T18:24:51.885Z,6.17
2019-04-22T18:27:39.553Z,5.50
2019-04-22T18:29:55.464Z,7.17
2019-04-22T18:32:25.686Z,7.80
2019-04-22T18:35:07.326Z,5.50
2019-04-22T18:37:41.378Z,6.87
2019-04-22T18:40:15.036Z,5.47
2019-04-22T18:42:55.331Z,5.97
2019-04-22T18:45:37.310Z,5.80
2019-04-22T18:47:50.366Z,5.37
2019-04-22T18:50:33.528Z,5.87
2019-04-22T18:53:21.655Z,6.13
2019-04-22T18:55:52.737Z,6.00
2019-04-22T18:58:27.467Z,5.73
2019-04-22T19:00:45.943Z,5.53
2019-04-22T19:03:22.683Z,6.17
2019-04-22T19:06:25.915Z,5.07
2019-04-22T19:08:43.341Z,7.43
2019-04-22T19:11:17.005Z,6.63
2019-04-22T19:14:43.949Z,4.10
2019-04-22T19:19:22.524Z,7.50
2019-04-22T19:21:34.928Z,6.27
2019-04-22T19:24:01.003Z,5.37
2019-04-22T19:26:55.956Z,4.73
2019-04-22T19:29:16.863Z,4.17
2019-04-22T19:31:53.160Z,4.23
2019-04-22T19:34:16.617Z,4.77
2019-04-22T19:36:51.803Z,5.27
2019-04-22T19:39:18.190Z,4.17
2019-04-22T19:42:04.761Z,5.63
2019-04-22T19:44:34.243Z,6.43
2019-04-22T19:47:21.355Z,5.73
2019-04-22T19:49:47.760Z,7.83
2019-04-22T19:52:19.511Z,5.07
2019-04-22T19:54:46.769Z,6.37
2019-04-22T19:57:21.551Z,5.30
2019-04-22T19:59:54.261Z,7.70
2019-04-22T20:02:34.597Z,7.27
2019-04-22T20:05:22.011Z,7.70
2019-04-22T20:07:43.124Z,6.53
2019-04-22T20:10:40.180Z,6.47
2019-04-22T20:12:53.053Z,8.17
2019-04-22T20:15:22.655Z,9.23
2019-04-22T20:18:22.585Z,9.90
2019-04-22T20:20:42.073Z,8.13
2019-04-22T20:23:06.286Z,8.60
2019-04-22T20:25:40.774Z,8.67
2019-04-22T20:28:19.447Z,9.07
2019-04-22T20:30:46.091Z,8.63
2019-04-22T20:33:25.811Z,9.50
2019-04-22T20:36:02.273Z,9.03
2019-04-22T20:38:28.145Z,11.27
2019-04-22T20:40:58.337Z,8.03
2019-04-22T20:43:41.624Z,11.37
2019-04-22T20:46:11.514Z,9.03
2019-04-22T20:48:46.945Z,11.80
2019-04-22T20:51:15.488Z,10.60
2019-04-22T20:53:47.925Z,10.97
2019-04-22T20:56:19.863Z,12.13
2019-04-22T20:58:55.930Z,12.53
2019-04-22T21:01:28.390Z,11.07
2019-04-22T21:03:48.922Z,14.40
2019-04-22T21:06:36.904Z,13.40
2019-04-22T21:09:15.519Z,12.43
2019-04-22T21:11:40.295Z,13.63
2019-04-22T21:14:12.029Z,10.37
2019-04-22T21:16:54.642Z,12.80
2019-04-22T21:19:27.727Z,11.90
2019-04-22T21:22:00.141Z,12.40
2019-04-22T21:24:23.671Z,11.17
2019-04-22T21:27:09.210Z,10.87
2019-04-22T21:29:32.118Z,12.07
2019-04-22T21:32:08.954Z,11.87
2019-04-22T21:34:55.381Z,13.43
2019-04-22T21:37:22.194Z,12.77
2019-04-22T21:39:46.412Z,11.67
2019-04-22T21:42:19.660Z,13.27
2019-04-22T21:44:52.717Z,13.17
2019-04-22T21:47:36.861Z,10.57
2019-04-22T21:50:21.414Z,15.53
2019-04-22T21:52:32.196Z,12.73
2019-04-22T21:55:10.340Z,12.97
2019-04-22T21:58:05.255Z,10.77
2019-04-22T22:00:46.117Z,11.77
2019-04-22T22:03:07.190Z,11.57
2019-04-22T22:05:29.748Z,13.37
2019-04-22T22:08:19.153Z,12.80
2019-04-22T22:11:11.718Z,16.23
2019-04-22T22:13:39.233Z,12.17
2019-04-22T22:16:10.323Z,12.30
2019-04-22T22:18:41.991Z,12.60
2019-04-22T22:21:42.051Z,12.30
2019-04-22T22:24:01.616Z,13.90
2019-04-22T22:26:19.261Z,11.77
2019-04-22T22:29:05.313Z,13.20
2019-04-22T22:31:36.702Z,12.70
2019-04-22T22:34:12.714Z,16.23
2019-04-22T22:36:33.261Z,13.40
2019-04-22T22:39:03.993Z,13.47
2019-04-22T22:41:23.947Z,15.90
2019-04-22T22:44:03.232Z,16.13
2019-04-22T22:46:39.351Z,11.33
2019-04-22T22:49:23.815Z,13.77
2019-04-22T22:52:10.197Z,12.77
2019-04-22T22:54:30.157Z,11.07
2019-04-22T22:57:08.833Z,11.60
2019-04-22T22:59:32.889Z,12.63
2019-04-22T23:02:08.078Z,15.00
2019-04-22T23:04:45.364Z,13.03
2019-04-22T23:07:22.617Z,13.40
2019-04-22T23:09:48.737Z,11.17
2019-04-22T23:15:03.292Z,11.57
2019-04-22T23:17:23.591Z,15.07
2019-04-22T23:19:52.121Z,9.80
2019-04-22T23:22:34.350Z,10.97
2019-04-22T23:25:25.056Z,12.60
2019-04-22T23:27:55.331Z,12.93
2019-04-22T23:30:37.850Z,11.87
2019-04-22T23:33:26.510Z,11.57
2019-04-22T23:36:06.379Z,10.73
2019-04-22T23:38:47.489Z,15.23
2019-04-22T23:41:39.481Z,9.47
2019-04-22T23:44:13.521Z,11.67
2019-04-22T23:46:41.178Z,10.30
2019-04-22T23:49:17.977Z,12.67
2019-04-22T23:52:02.345Z,11.57
2019-04-22T23:54:31.523Z,11.30
2019-04-22T23:56:56.960Z,11.40
2019-04-22T23:59:41.490Z,12.07
